createdAt,value
2023-01-03T00:01:51.766Z,5.70
2023-01-03T00:04:21.962Z,5.72
2023-01-03T00:06:51.662Z,5.70
2023-01-03T00:09:22.707Z,5.58
2023-01-03T00:12:10.882Z,5.60
2023-01-03T00:14:40.819Z,5.51
2023-01-03T00:17:09.584Z,5.49
2023-01-03T00:19:43.087Z,5.52
2023-01-03T00:22:11.954Z,5.57
2023-01-03T00:24:40.160Z,5.58
2023-01-03T00:27:08.629Z,5.60
2023-01-03T00:29:36.796Z,5.55
2023-01-03T00:32:05.408Z,5.51
2023-01-03T00:34:34.639Z,5.55
2023-01-03T00:37:03.313Z,5.52
2023-01-03T00:39:31.351Z,5.66
2023-01-03T00:41:58.984Z,5.55
2023-01-03T00:44:26.764Z,5.21
2023-01-03T00:46:54.546Z,5.38
2023-01-03T00:49:26.646Z,5.37
2023-01-03T00:51:55.762Z,5.37
2023-01-03T00:54:24.044Z,5.39
2023-01-03T00:56:52.675Z,5.37
2023-01-03T00:59:21.379Z,5.34
2023-01-03T01:01:54.375Z,5.47
2023-01-03T01:04:29.093Z,5.69
2023-01-03T01:07:04.444Z,5.57
2023-01-03T01:09:35.683Z,5.56
2023-01-03T01:12:05.425Z,5.55
2023-01-03T01:14:33.921Z,5.46
2023-01-03T01:17:07.924Z,5.56
2023-01-03T01:19:42.433Z,5.57
2023-01-03T01:22:13.336Z,5.71
2023-01-03T01:24:41.723Z,5.79
2023-01-03T01:27:09.475Z,5.80
2023-01-03T01:29:38.981Z,5.82
2023-01-03T01:32:07.342Z,5.90
2023-01-03T01:34:34.962Z,5.81
2023-01-03T01:37:02.620Z,5.84
2023-01-03T01:39:30.825Z,5.58
2023-01-03T01:42:24.047Z,5.82
2023-01-03T01:44:59.004Z,5.69
2023-01-03T01:47:47.588Z,5.73
2023-01-03T01:50:43.638Z,5.73
2023-01-03T01:53:24.200Z,5.77
2023-01-03T01:56:00.858Z,5.70
2023-01-03T01:58:35.027Z,5.76
2023-01-03T02:01:17.991Z,5.80
2023-01-03T02:03:52.495Z,5.81
2023-01-03T02:06:20.458Z,5.73
2023-01-03T02:08:48.537Z,5.75
2023-01-03T02:11:25.091Z,5.80
2023-01-03T02:14:15.348Z,5.89
2023-01-03T02:17:21.054Z,5.95
2023-01-03T02:19:48.636Z,6.09
2023-01-03T02:22:53.420Z,5.92
2023-01-03T02:25:27.200Z,5.95
2023-01-03T02:28:13.799Z,5.89
2023-01-03T02:30:52.600Z,5.99
2023-01-03T02:33:41.952Z,6.01
2023-01-03T02:36:09.537Z,6.24
2023-01-03T02:38:42.884Z,6.09
2023-01-03T02:41:35.339Z,6.13
2023-01-03T02:44:11.633Z,6.26
2023-01-03T02:47:07.671Z,6.14
2023-01-03T02:49:41.714Z,6.17
2023-01-03T02:52:16.891Z,6.12
2023-01-03T02:54:51.499Z,6.24
2023-01-03T02:57:24.669Z,6.25
2023-01-03T03:00:00.909Z,6.10
2023-01-03T03:02:35.492Z,6.14
2023-01-03T03:05:08.479Z,6.37
2023-01-03T03:07:39.418Z,6.37
2023-01-03T03:10:27.779Z,6.42
2023-01-03T03:13:13.514Z,6.37
2023-01-03T03:16:10.118Z,6.47
2023-01-03T03:18:57.597Z,6.39
2023-01-03T03:21:49.838Z,6.54
2023-01-03T03:24:40.674Z,6.67
2023-01-03T03:27:31.383Z,6.55
2023-01-03T03:30:03.215Z,6.49
2023-01-03T03:32:34.435Z,6.58
2023-01-03T03:35:04.781Z,6.55
2023-01-03T03:37:39.011Z,6.48
2023-01-03T03:40:26.744Z,6.41
2023-01-03T03:43:34.755Z,6.39
2023-01-03T03:46:13.207Z,6.31
2023-01-03T03:49:14.192Z,6.35
2023-01-03T03:51:45.009Z,6.33
2023-01-03T03:54:18.713Z,6.26
2023-01-03T03:56:53.080Z,6.21
2023-01-03T03:59:22.882Z,6.23
2023-01-03T04:01:52.536Z,6.19
2023-01-03T04:04:29.459Z,6.16
2023-01-03T04:06:57.250Z,6.02
2023-01-03T04:09:24.970Z,5.88
2023-01-03T04:11:52.752Z,5.77
2023-01-03T04:14:20.526Z,5.88
2023-01-03T04:16:48.395Z,5.86
2023-01-03T04:19:16.018Z,5.85
2023-01-03T04:21:43.578Z,5.88
2023-01-03T04:24:11.310Z,5.84
2023-01-03T04:26:38.934Z,5.75
2023-01-03T04:29:06.855Z,5.75
2023-01-03T04:31:35.403Z,5.82
2023-01-03T04:34:03.206Z,5.82
2023-01-03T04:36:30.892Z,5.80
2023-01-03T04:38:58.401Z,5.80
2023-01-03T04:41:26.036Z,5.90
2023-01-03T04:44:02.429Z,5.85
2023-01-03T04:46:36.625Z,6.01
2023-01-03T04:49:05.800Z,5.92
2023-01-03T04:51:36.550Z,5.96
2023-01-03T04:54:06.132Z,6.01
2023-01-03T04:56:36.653Z,5.94
2023-01-03T04:59:05.205Z,5.73
2023-01-03T05:01:33.083Z,5.74
2023-01-03T05:04:02.528Z,5.84
2023-01-03T05:06:30.281Z,5.91
2023-01-03T05:08:57.959Z,5.92
2023-01-03T05:11:25.636Z,5.96
2023-01-03T05:13:53.377Z,5.99
2023-01-03T05:16:21.099Z,5.93
2023-01-03T05:18:51.544Z,6.02
2023-01-03T05:21:40.560Z,6.12
2023-01-03T05:24:30.049Z,6.07
2023-01-03T05:27:00.943Z,5.94
2023-01-03T05:29:30.314Z,5.98
2023-01-03T05:31:59.672Z,5.98
2023-01-03T05:34:27.459Z,5.95
2023-01-03T05:36:55.118Z,6.13
2023-01-03T05:39:22.913Z,6.23
2023-01-03T05:41:59.658Z,6.31
2023-01-03T05:44:29.426Z,6.37
2023-01-03T05:46:58.668Z,6.45
2023-01-03T05:49:26.909Z,6.61
2023-01-03T05:51:54.488Z,6.59
2023-01-03T05:54:22.789Z,6.62
2023-01-03T05:56:51.379Z,6.67
2023-01-03T05:59:20.006Z,6.65
2023-01-03T06:01:47.650Z,6.78
2023-01-03T06:04:15.415Z,6.72
2023-01-03T06:06:43.332Z,6.78
2023-01-03T06:09:11.393Z,6.75
2023-01-03T06:11:41.272Z,6.92
2023-01-03T06:14:09.127Z,6.97
2023-01-03T06:16:59.384Z,6.95
2023-01-03T06:19:27.500Z,6.90
2023-01-03T06:21:55.156Z,6.97
2023-01-03T06:24:23.103Z,6.87
2023-01-03T06:26:50.686Z,6.99
2023-01-03T06:29:18.265Z,6.96
2023-01-03T06:31:45.836Z,7.01
2023-01-03T06:34:13.452Z,7.03
2023-01-03T06:36:41.041Z,7.01
2023-01-03T06:39:09.353Z,6.95
2023-01-03T06:41:38.074Z,7.02
2023-01-03T06:44:05.706Z,7.19
2023-01-03T06:46:51.699Z,7.24
2023-01-03T06:49:38.436Z,7.09
2023-01-03T06:52:31.681Z,7.26
2023-01-03T06:54:59.284Z,7.13
2023-01-03T06:57:27.547Z,7.20
2023-01-03T06:59:57.738Z,7.24
2023-01-03T07:02:26.252Z,7.32
2023-01-03T07:04:53.886Z,7.34
2023-01-03T07:07:21.519Z,7.43
2023-01-03T07:09:49.320Z,7.57
2023-01-03T07:12:38.275Z,7.49
2023-01-03T07:15:06.504Z,7.67
2023-01-03T07:17:35.646Z,7.83
2023-01-03T07:20:03.868Z,7.96
2023-01-03T07:22:31.839Z,8.12
2023-01-03T07:24:59.894Z,8.12
2023-01-03T07:27:27.929Z,8.22
2023-01-03T07:29:55.773Z,8.46
2023-01-03T07:32:23.482Z,8.59
2023-01-03T07:34:51.674Z,8.68
2023-01-03T07:37:20.222Z,8.71
2023-01-03T07:39:47.873Z,8.89
2023-01-03T07:42:34.777Z,8.94
2023-01-03T07:45:02.487Z,9.00
2023-01-03T07:47:30.228Z,8.93
2023-01-03T07:49:57.966Z,9.03
2023-01-03T07:52:27.749Z,9.20
2023-01-03T07:54:55.437Z,9.44
2023-01-03T07:57:23.185Z,9.47
2023-01-03T07:59:52.775Z,9.83
2023-01-03T08:02:21.028Z,9.87
2023-01-03T08:04:48.940Z,10.12
2023-01-03T08:07:16.711Z,10.15
2023-01-03T08:10:03.056Z,10.18
2023-01-03T08:12:49.888Z,10.15
2023-01-03T08:15:17.598Z,10.34
2023-01-03T08:17:45.380Z,10.28
2023-01-03T08:20:14.491Z,10.46
2023-01-03T08:22:42.241Z,10.28
2023-01-03T08:25:11.717Z,10.41
2023-01-03T08:27:42.817Z,10.32
2023-01-03T08:30:14.795Z,10.61
2023-01-03T08:32:42.890Z,10.80
2023-01-03T08:35:11.540Z,10.77
2023-01-03T08:37:39.559Z,11.01
2023-01-03T08:40:10.945Z,11.00
2023-01-03T08:42:39.745Z,11.07
2023-01-03T08:45:12.716Z,11.04
2023-01-03T08:47:43.170Z,11.23
2023-01-03T08:50:13.274Z,11.24
2023-01-03T08:52:41.419Z,11.29
2023-01-03T08:55:10.007Z,11.52
2023-01-03T08:57:38.148Z,11.46
2023-01-03T09:00:06.840Z,11.51
2023-01-03T09:02:36.565Z,11.40
2023-01-03T09:25:37.117Z,11.71
2023-01-03T09:28:15.371Z,11.68
2023-01-03T09:31:02.133Z,11.67
2023-01-03T09:39:28.703Z,11.53
2023-01-03T09:42:21.387Z,11.46
2023-01-03T09:54:00.810Z,12.12
2023-01-03T09:56:51.723Z,12.10
2023-01-03T09:59:38.095Z,12.05
2023-01-03T10:03:02.235Z,12.21
2023-01-03T10:06:07.570Z,12.27
2023-01-03T10:08:42.444Z,12.43
2023-01-03T10:11:26.709Z,12.40
2023-01-03T10:14:32.045Z,12.44
2023-01-03T10:17:11.873Z,12.31
2023-01-03T10:19:57.570Z,12.55
2023-01-03T10:22:28.953Z,12.52
2023-01-03T10:24:59.665Z,12.44
2023-01-03T10:27:30.201Z,12.18
2023-01-03T10:30:02.148Z,12.38
2023-01-03T10:32:57.560Z,12.33
2023-01-03T10:35:33.370Z,12.57
2023-01-03T10:38:01.367Z,12.42
2023-01-03T10:40:40.431Z,12.37
2023-01-03T10:43:41.267Z,12.37
2023-01-03T10:46:23.803Z,12.62
2023-01-03T10:49:26.136Z,12.52
2023-01-03T10:51:47.287Z,12.40
2023-01-03T10:54:17.953Z,12.66
2023-01-03T10:56:47.657Z,12.78
2023-01-03T10:59:15.423Z,12.67
2023-01-03T11:02:09.503Z,12.81
2023-01-03T11:04:39.837Z,12.87
2023-01-03T11:07:13.585Z,13.03
2023-01-03T11:09:54.594Z,13.00
2023-01-03T11:12:37.749Z,13.18
2023-01-03T11:15:38.014Z,13.21
2023-01-03T11:18:17.864Z,12.76
2023-01-03T11:21:10.244Z,12.86
2023-01-03T11:24:01.733Z,13.34
2023-01-03T11:26:55.073Z,12.90
2023-01-03T11:29:25.598Z,13.02
2023-01-03T11:32:19.227Z,12.88
2023-01-03T11:35:25.593Z,12.60
2023-01-03T11:38:01.531Z,12.82
2023-01-03T11:40:58.248Z,12.41
2023-01-03T11:43:34.880Z,12.53
2023-01-03T11:46:21.430Z,12.63
2023-01-03T11:49:02.256Z,12.56
2023-01-03T11:51:42.178Z,12.28
2023-01-03T11:54:32.319Z,12.49
2023-01-03T11:57:12.574Z,12.27
2023-01-03T11:59:46.469Z,12.62
2023-01-03T12:02:32.584Z,12.33
2023-01-03T12:05:35.253Z,12.32
2023-01-03T12:08:18.051Z,12.42
2023-01-03T12:10:48.466Z,12.38
2023-01-03T12:13:42.224Z,12.52
2023-01-03T12:16:23.655Z,12.48
2023-01-03T12:19:11.914Z,12.82
2023-01-03T12:21:50.435Z,12.80
2023-01-03T12:24:30.465Z,12.58
2023-01-03T12:27:10.603Z,12.22
2023-01-03T12:29:41.239Z,12.15
2023-01-03T12:32:41.613Z,12.51
2023-01-03T12:35:20.472Z,12.36
2023-01-03T12:37:51.015Z,12.58
2023-01-03T12:40:40.963Z,12.62
2023-01-03T12:43:26.725Z,12.50
2023-01-03T12:46:12.171Z,12.31
2023-01-03T12:49:09.632Z,12.47
2023-01-03T12:51:37.993Z,12.38
2023-01-03T12:54:15.224Z,12.35
2023-01-03T12:57:13.517Z,12.42
2023-01-03T13:00:44.823Z,12.51
2023-01-03T13:03:40.805Z,12.84
2023-01-03T13:06:19.888Z,12.51
2023-01-03T13:09:20.553Z,12.39
2023-01-03T13:11:53.734Z,12.49
2023-01-03T13:14:27.559Z,12.65
2023-01-03T13:17:07.170Z,12.67
2023-01-03T13:19:35.626Z,12.42
2023-01-03T13:22:50.975Z,12.38
2023-01-03T13:25:27.374Z,12.31
2023-01-03T13:28:15.048Z,12.38
2023-01-03T13:30:42.903Z,12.33
2023-01-03T13:33:10.602Z,12.28
2023-01-03T13:35:44.853Z,12.34
2023-01-03T13:38:24.801Z,12.45
2023-01-03T13:43:50.291Z,12.51
2023-01-03T13:46:23.449Z,12.23
2023-01-03T13:49:06.855Z,12.26
2023-01-03T13:51:54.199Z,12.27
2023-01-03T13:54:25.382Z,12.14
2023-01-03T13:56:53.461Z,12.08
2023-01-03T13:59:35.071Z,12.05
2023-01-03T14:02:12.684Z,11.95
2023-01-03T14:05:13.695Z,11.94
2023-01-03T14:08:00.510Z,11.86
2023-01-03T14:10:37.174Z,11.64
2023-01-03T14:13:20.371Z,11.59
2023-01-03T14:15:50.381Z,11.57
2023-01-03T14:18:26.801Z,11.53
2023-01-03T14:20:58.213Z,11.53
2023-01-03T14:26:18.537Z,11.55
2023-01-03T14:28:50.083Z,11.33
2023-01-03T14:31:24.860Z,11.33
2023-01-03T14:33:57.525Z,11.20
2023-01-03T14:36:26.079Z,11.19
2023-01-03T14:38:59.754Z,11.27
2023-01-03T14:41:38.365Z,11.32
2023-01-03T14:44:17.353Z,11.39
2023-01-03T14:46:55.486Z,11.18
2023-01-03T14:49:41.957Z,10.98
2023-01-03T14:52:28.132Z,11.22
2023-01-03T14:55:04.391Z,11.13
2023-01-03T14:57:40.311Z,11.12
2023-01-03T15:00:17.139Z,11.16
2023-01-03T15:02:46.566Z,11.08
2023-01-03T15:05:29.799Z,11.12
2023-01-03T15:08:13.133Z,11.08
2023-01-03T15:10:56.181Z,11.08
2023-01-03T15:13:39.947Z,10.82
2023-01-03T15:16:20.990Z,10.89
2023-01-03T15:18:49.426Z,10.76
2023-01-03T15:21:19.403Z,10.76
2023-01-03T15:23:50.048Z,10.62
2023-01-03T15:26:41.360Z,10.57
2023-01-03T15:29:14.482Z,10.61
2023-01-03T15:32:01.488Z,10.68
2023-01-03T15:34:29.650Z,10.61
2023-01-03T15:37:13.957Z,10.54
2023-01-03T15:39:52.888Z,10.67
2023-01-03T15:42:45.310Z,10.49
2023-01-03T15:45:27.644Z,10.43
2023-01-03T15:47:59.994Z,10.11
2023-01-03T15:50:43.356Z,10.07
2023-01-03T15:53:21.967Z,10.16
2023-01-03T15:55:57.595Z,10.09
2023-01-03T15:58:27.490Z,9.98
2023-01-03T16:00:56.317Z,9.95
2023-01-03T16:03:28.276Z,10.11
2023-01-03T16:05:56.635Z,9.76
2023-01-03T16:08:28.505Z,9.46
2023-01-03T16:11:02.599Z,9.79
2023-01-03T16:13:37.341Z,9.44
2023-01-03T16:16:07.171Z,9.42
2023-01-03T16:18:42.967Z,9.23
2023-01-03T16:21:12.078Z,9.22
2023-01-03T16:23:40.073Z,9.30
2023-01-03T16:26:08.741Z,9.20
2023-01-03T16:28:36.796Z,9.15
2023-01-03T16:31:14.409Z,9.36
2023-01-03T16:33:43.224Z,9.32
2023-01-03T16:36:39.818Z,9.18
2023-01-03T16:39:19.261Z,9.21
2023-01-03T16:42:07.637Z,9.17
2023-01-03T16:44:40.439Z,9.12
2023-01-03T16:47:16.019Z,8.91
2023-01-03T16:49:47.077Z,8.91
2023-01-03T16:52:20.506Z,9.03
2023-01-03T16:54:50.263Z,8.93
2023-01-03T16:57:20.229Z,9.30
2023-01-03T16:59:49.459Z,9.16
2023-01-03T17:02:17.586Z,8.97
2023-01-03T17:04:45.887Z,9.09
2023-01-03T17:07:24.124Z,9.02
2023-01-03T17:09:52.958Z,9.11
2023-01-03T17:12:24.184Z,9.38
2023-01-03T17:14:52.522Z,9.39
2023-01-03T17:17:22.931Z,9.34
2023-01-03T17:20:06.811Z,9.24
2023-01-03T17:22:36.148Z,9.30
2023-01-03T17:25:04.521Z,9.51
2023-01-03T17:27:33.565Z,9.23
2023-01-03T17:30:05.904Z,9.30
2023-01-03T17:32:34.264Z,9.21
2023-01-03T17:35:03.640Z,9.28
2023-01-03T17:37:40.899Z,9.22
2023-01-03T17:40:29.244Z,9.30
2023-01-03T17:43:01.259Z,9.41
2023-01-03T17:45:48.014Z,9.27
2023-01-03T17:48:34.581Z,9.48
2023-01-03T17:51:03.309Z,9.59
2023-01-03T17:53:31.263Z,9.52
2023-01-03T17:55:59.643Z,9.45
2023-01-03T17:58:35.851Z,9.26
2023-01-03T18:01:04.435Z,9.46
2023-01-03T18:03:32.817Z,9.34
2023-01-03T18:06:06.813Z,9.29
2023-01-03T18:08:35.370Z,9.41
2023-01-03T18:11:06.632Z,9.30
2023-01-03T18:13:38.764Z,9.26
2023-01-03T18:16:07.383Z,9.40
2023-01-03T18:18:35.449Z,9.36
2023-01-03T18:21:05.846Z,9.53
2023-01-03T18:23:38.046Z,9.58
2023-01-03T18:26:13.463Z,9.77
2023-01-03T18:28:41.118Z,9.69
2023-01-03T18:31:19.599Z,9.75
2023-01-03T18:33:47.549Z,9.79
2023-01-03T18:36:32.516Z,9.65
2023-01-03T18:39:15.862Z,9.72
2023-01-03T18:41:44.176Z,9.72
2023-01-03T18:44:21.259Z,9.54
2023-01-03T18:46:49.650Z,9.67
2023-01-03T18:49:18.680Z,9.52
2023-01-03T18:51:49.754Z,9.63
2023-01-03T18:54:19.944Z,9.67
2023-01-03T18:56:47.697Z,9.73
2023-01-03T18:59:27.018Z,9.61
2023-01-03T19:01:55.794Z,9.48
2023-01-03T19:04:26.459Z,9.61
2023-01-03T19:06:54.315Z,9.55
2023-01-03T19:09:24.857Z,9.52
2023-01-03T19:11:54.641Z,9.56
2023-01-03T19:14:22.332Z,9.42
2023-01-03T19:16:50.035Z,9.60
2023-01-03T19:19:17.903Z,9.73
2023-01-03T19:21:47.323Z,9.74
2023-01-03T19:24:39.316Z,9.37
2023-01-03T19:27:15.470Z,9.51
2023-01-03T19:29:44.649Z,9.46
2023-01-03T19:32:19.385Z,9.46
2023-01-03T19:34:48.076Z,9.58
2023-01-03T19:37:16.246Z,9.51
2023-01-03T19:39:44.037Z,9.59
2023-01-03T19:42:37.480Z,9.56
2023-01-03T19:45:17.666Z,9.53
2023-01-03T19:47:45.479Z,9.68
2023-01-03T19:50:26.067Z,9.32
2023-01-03T19:52:54.743Z,9.26
2023-01-03T19:55:29.935Z,9.31
2023-01-03T19:58:01.640Z,9.25
2023-01-03T20:00:37.264Z,9.26
2023-01-03T20:03:20.807Z,9.39
2023-01-03T20:05:51.010Z,9.16
2023-01-03T20:08:19.930Z,9.07
2023-01-03T20:10:51.270Z,9.23
2023-01-03T20:13:23.547Z,9.26
2023-01-03T20:15:54.651Z,9.00
2023-01-03T20:18:25.836Z,9.16
2023-01-03T20:20:57.530Z,9.18
2023-01-03T20:23:29.268Z,9.07
2023-01-03T20:25:57.386Z,9.21
2023-01-03T20:28:31.595Z,9.19
2023-01-03T20:31:02.706Z,9.09
2023-01-03T20:33:31.079Z,9.20
2023-01-03T20:36:14.411Z,9.19
2023-01-03T20:38:48.171Z,9.08
2023-01-03T20:41:17.899Z,9.03
2023-01-03T20:43:47.676Z,9.10
2023-01-03T20:46:20.352Z,9.02
2023-01-03T20:48:56.278Z,9.01
2023-01-03T20:51:25.121Z,9.14
2023-01-03T20:53:55.468Z,9.14
2023-01-03T20:56:24.165Z,9.01
2023-01-03T20:58:53.170Z,9.09
2023-01-03T21:01:21.709Z,9.24
2023-01-03T21:03:49.920Z,9.22
2023-01-03T21:06:24.122Z,9.01
2023-01-03T21:08:54.824Z,8.92
2023-01-03T21:11:31.023Z,8.90
2023-01-03T21:14:00.481Z,8.86
2023-01-03T21:16:32.863Z,9.08
2023-01-03T21:19:27.197Z,8.73
2023-01-03T21:21:56.292Z,8.69
2023-01-03T21:24:24.964Z,8.65
2023-01-03T21:26:53.034Z,8.72
2023-01-03T21:29:22.246Z,8.73
2023-01-03T21:31:50.180Z,8.69
2023-01-03T21:34:20.453Z,8.62
2023-01-03T21:36:48.693Z,8.67
2023-01-03T21:39:17.146Z,8.59
2023-01-03T21:42:03.699Z,8.69
2023-01-03T21:44:33.390Z,8.46
2023-01-03T21:47:01.158Z,8.54
2023-01-03T21:49:29.168Z,8.75
2023-01-03T21:51:56.831Z,8.61
2023-01-03T21:54:24.616Z,8.72
2023-01-03T21:56:52.241Z,8.62
2023-01-03T21:59:22.241Z,8.52
2023-01-03T22:02:08.792Z,8.41
2023-01-03T22:04:36.634Z,8.39
2023-01-03T22:07:04.212Z,8.46
2023-01-03T22:09:50.639Z,8.42
2023-01-03T22:12:19.284Z,8.32
2023-01-03T22:14:47.311Z,8.38
2023-01-03T22:17:16.883Z,8.32
2023-01-03T22:19:45.185Z,8.29
2023-01-03T22:22:12.710Z,8.21
2023-01-03T22:24:40.715Z,8.22
2023-01-03T22:27:08.897Z,8.24
2023-01-03T22:29:36.692Z,8.38
2023-01-03T22:32:04.650Z,8.41
2023-01-03T22:34:32.914Z,8.23
2023-01-03T22:37:00.605Z,8.15
2023-01-03T22:39:28.314Z,8.18
2023-01-03T22:41:56.769Z,8.17
2023-01-03T22:44:24.381Z,8.10
2023-01-03T22:46:51.933Z,8.07
2023-01-03T22:49:20.524Z,8.18
2023-01-03T22:51:48.439Z,7.96
2023-01-03T22:54:16.079Z,7.99
2023-01-03T22:56:44.926Z,7.97
2023-01-03T22:59:13.012Z,7.81
2023-01-03T23:01:40.824Z,7.78
2023-01-03T23:04:09.005Z,7.92
2023-01-03T23:06:37.425Z,7.93
2023-01-03T23:09:06.034Z,7.80
2023-01-03T23:11:52.768Z,7.96
2023-01-03T23:14:25.867Z,7.85
2023-01-03T23:16:57.845Z,7.90
2023-01-03T23:19:26.965Z,8.02
2023-01-03T23:21:58.466Z,8.05
2023-01-03T23:24:26.377Z,8.03
2023-01-03T23:26:54.230Z,7.99
2023-01-03T23:29:23.198Z,7.95
2023-01-03T23:31:50.953Z,7.96
2023-01-03T23:34:18.539Z,7.90
2023-01-03T23:36:46.211Z,7.96
2023-01-03T23:39:16.648Z,8.09
2023-01-03T23:41:44.990Z,7.90
2023-01-03T23:44:12.726Z,7.86
2023-01-03T23:46:41.897Z,7.89
2023-01-03T23:49:11.899Z,7.96
2023-01-03T23:51:39.433Z,8.01
2023-01-03T23:54:06.964Z,8.14
2023-01-03T23:56:34.554Z,8.20
2023-01-03T23:59:02.442Z,8.17
